Weather History for KCSQ - February, 2014

Change the Weather History Date:

Thursday, February 20, 2014

  Actual Average Record
Temperature  
Mean Temperature 32 °F -  
Max Temperature 37 °F 40 °F 64 °F (1981)
Min Temperature 26 °F 21 °F -7 °F (2008)
Degree Days  
Heating Degree Days 34    
Moisture  
Dew Point 32 °F    
Average Humidity 92    
Maximum Humidity 100    
Minimum Humidity 74    
Precipitation  
Precipitation 0.21 in - - ()
Sea Level Pressure  
Sea Level Pressure 29.52 in    
Wind  
Wind Speed 17 mph (North)    
Max Wind Speed 34 mph    
Max Gust Speed 44 mph    
Visibility 6 miles    
Events Fog , Rain , Snow    
Averages and records for this station are not official NWS values.
T = Trace of Precipitation, MM = Missing Value Source: NWS Daily Summary

Daily Weather History Graph

Daily Weather History Graph

Search for Another Location

Airport or City:

Trip Planner

Search our weather history database for the weather conditions in past years. The results will help you decide how hot, cold, wet, or windy it might be!

Date:

Astronomy

Feb. 20, 2014 Rise Set
Actual Time 7:04 AM CST 5:57 PM CST
Civil Twilight 6:37 AM CST 6:25 PM CST
Nautical Twilight 6:05 AM CST 6:57 PM CST
Astronomical Twilight 5:33 AM CST 7:29 PM CST
Moon 11:56 PM CST (2/20) 9:45 AM CST (2/20)
Length of Visible Light 11h 48m
Length of Day
10h 53m
Waning Gibbous, 70% of the Moon is Illuminated
Feb 20
Waning Gibbous
Feb 22
Last Quarter
Mar 1
New
Mar 8
First Quarter
Mar 16
Full

Hourly Weather History & Observations

Time (CST) Temp. Windchill Dew Point Humidity Pressure Visibility Wind Dir Wind Speed Gust Speed Precip Events Conditions
12:15 AM 37.4 °F 28.5 °F 37.4 °F 100% 29.63 in 4.0 mi East 15.0 mph - N/A   Overcast
12:35 AM 37.4 °F 28.5 °F 37.4 °F 100% 29.61 in 10.0 mi East 15.0 mph - N/A   Overcast
12:55 AM 37.4 °F 28.5 °F 37.4 °F 100% 29.61 in 10.0 mi ESE 15.0 mph - 0.02 in   Overcast
1:15 AM 37.4 °F 28.9 °F 37.4 °F 100% 29.60 in 10.0 mi East 13.8 mph - N/A   Overcast
1:35 AM 37.4 °F 29.8 °F 37.4 °F 100% 29.60 in 9.0 mi East 11.5 mph - N/A   Overcast
1:55 AM 37.4 °F 29.3 °F 37.4 °F 100% 29.58 in 6.0 mi East 12.7 mph - N/A   Overcast
2:15 AM 37.4 °F 28.9 °F 37.4 °F 100% 29.57 in 4.0 mi ESE 13.8 mph - N/A   Overcast
2:35 AM 37.4 °F 30.3 °F 37.4 °F 100% 29.56 in 4.0 mi East 10.4 mph 17.3 mph N/A   Overcast
2:55 AM 37.4 °F 28.9 °F 37.4 °F 100% 29.54 in 5.0 mi ESE 13.8 mph - 0.01 in   Overcast
3:15 AM 37.4 °F 29.3 °F 37.4 °F 100% 29.54 in 7.0 mi East 12.7 mph - N/A   Overcast
3:35 AM 37.4 °F 30.3 °F 37.4 °F 100% 29.53 in 6.0 mi East 10.4 mph - N/A   Overcast
3:55 AM 37.4 °F 30.8 °F 37.4 °F 100% 29.54 in 6.0 mi East 9.2 mph - N/A   Overcast
4:15 AM 37.4 °F 30.3 °F 37.4 °F 100% 29.51 in 6.0 mi ESE 10.4 mph - N/A   Overcast
4:35 AM 37.4 °F 29.3 °F 37.4 °F 100% 29.49 in 5.0 mi ESE 12.7 mph - N/A   Overcast
4:55 AM 37.4 °F 30.3 °F 37.4 °F 100% 29.48 in 5.0 mi East 10.4 mph - N/A   Overcast
5:15 AM 37.4 °F 29.3 °F 37.4 °F 100% 29.45 in 3.0 mi East 12.7 mph - N/A   Overcast
5:35 AM 37.4 °F 30.8 °F 37.4 °F 100% 29.48 in 2.5 mi ESE 9.2 mph - N/A   Overcast
5:55 AM 37.4 °F 31.4 °F 37.4 °F 100% 29.50 in 2.0 mi ESE 8.1 mph - N/A   Overcast
6:15 AM 37.4 °F 32.8 °F 37.4 °F 100% 29.49 in 2.0 mi East 5.8 mph - N/A   Overcast
6:35 AM 37.4 °F 32.8 °F 37.4 °F 100% 29.49 in 1.8 mi NNE 5.8 mph - N/A   Overcast
6:55 AM 37.4 °F 32.8 °F 37.4 °F 100% 29.49 in 1.2 mi NNE 5.8 mph - N/A   Overcast
7:15 AM 37.4 °F 31.4 °F 37.4 °F 100% 29.48 in 0.8 mi NE 8.1 mph - N/A   Overcast
7:35 AM 37.4 °F 29.3 °F 37.4 °F 100% 29.45 in 0.2 mi NE 12.7 mph - N/A Fog Fog
7:55 AM 37.4 °F 28.9 °F 37.4 °F 100% 29.43 in 0.2 mi NE 13.8 mph - N/A   Overcast
8:15 AM 37.4 °F 29.8 °F 37.4 °F 100% 29.43 in 0.2 mi NE 11.5 mph - N/A Fog Fog
8:35 AM 35.6 °F 27.5 °F 35.6 °F 100% 29.42 in 0.2 mi NE 11.5 mph - N/A Fog Fog
8:55 AM 35.6 °F 26.2 °F 35.6 °F 100% 29.37 in 0.2 mi NE 15.0 mph 20.7 mph N/A   Overcast
9:15 AM 35.6 °F 25.5 °F 35.6 °F 100% 29.34 in - ENE 17.3 mph - N/A   Overcast
9:35 AM 35.6 °F 24.5 °F 35.6 °F 100% 29.30 in 0.2 mi ENE 20.7 mph - N/A Fog Fog
9:55 AM 35.6 °F 26.2 °F 35.6 °F 100% 29.31 in 0.2 mi ENE 15.0 mph 21.9 mph N/A Fog Fog
10:15 AM 35.6 °F 28.0 °F 35.6 °F 100% 29.37 in 0.2 mi NW 10.4 mph 26.5 mph N/A Fog Fog
10:35 AM 33.8 °F 23.2 °F 33.8 °F 100% 29.38 in 0.8 mi NW 17.3 mph - N/A Rain Light Rain
10:55 AM 33.8 °F 22.8 °F 33.8 °F 100% 29.36 in 2.0 mi NW 18.4 mph 27.6 mph 0.09 in Rain Rain
12:55 PM 32.0 °F 17.9 °F 32.0 °F 100% 29.32 in 0.8 mi NNW 28.8 mph 40.3 mph 0.07 in   Overcast
1:35 PM 33.8 °F 19.9 °F 32.0 °F 93% 29.34 in 0.5 mi NW 31.1 mph 39.1 mph N/A Snow Light Snow
2:15 PM 33.8 °F 19.6 °F 32.0 °F 93% 29.36 in 0.2 mi NW 32.2 mph 42.6 mph N/A Snow Light Snow
2:35 PM 33.8 °F 19.6 °F 32.0 °F 93% 29.38 in 0.2 mi NW 32.2 mph 40.3 mph N/A Snow Snow
5:15 PM 33.8 °F 22.8 °F 32.0 °F 93% 29.55 in 10.0 mi West 18.4 mph 24.2 mph N/A   Overcast
5:35 PM 33.8 °F 23.2 °F 32.0 °F 93% 29.55 in 10.0 mi West 17.3 mph 25.3 mph N/A   Overcast
5:55 PM 35.6 °F 24.8 °F 30.2 °F 81% 29.57 in 10.0 mi West 19.6 mph 39.1 mph 0.01 in   Overcast
6:15 PM 35.6 °F 22.5 °F 28.4 °F 75% 29.58 in - West 29.9 mph 39.1 mph N/A   Overcast
6:35 PM 33.8 °F 20.3 °F 28.4 °F 81% 29.59 in 10.0 mi WNW 28.8 mph 38.0 mph N/A   Overcast
6:55 PM 33.8 °F 20.5 °F 28.4 °F 81% 29.60 in 10.0 mi WNW 27.6 mph 38.0 mph 0.01 in   Overcast
7:15 PM 33.8 °F 19.9 °F 26.6 °F 75% 29.61 in 10.0 mi WNW 31.1 mph 36.8 mph N/A   Overcast
7:35 PM 32.0 °F 17.4 °F 26.6 °F 80% 29.62 in 10.0 mi WNW 31.1 mph 38.0 mph N/A   Overcast
7:55 PM 32.0 °F 17.6 °F 24.8 °F 75% 29.62 in 10.0 mi WNW 29.9 mph 42.6 mph N/A   Overcast
8:15 PM 30.2 °F 15.7 °F 24.8 °F 80% 29.62 in 10.0 mi WNW 27.6 mph 34.5 mph N/A   Overcast
8:35 PM 30.2 °F 15.4 °F 23.0 °F 75% 29.63 in 10.0 mi WNW 28.8 mph 41.4 mph N/A   Overcast
8:55 PM 28.4 °F 12.7 °F 23.0 °F 80% 29.63 in 10.0 mi WNW 29.9 mph 42.6 mph N/A   Overcast
9:15 PM 28.4 °F 12.5 °F 23.0 °F 80% 29.63 in 10.0 mi WNW 31.1 mph 38.0 mph N/A   Overcast
9:35 PM 28.4 °F 11.8 °F 21.2 °F 74% 29.63 in 10.0 mi WNW 34.5 mph 42.6 mph N/A   Overcast
9:55 PM 26.6 °F 10.8 °F 23.0 °F 86% 29.64 in 10.0 mi WNW 27.6 mph 43.7 mph N/A   Overcast
10:15 PM 26.6 °F 10.0 °F 21.2 °F 80% 29.64 in 10.0 mi WNW 31.1 mph 39.1 mph N/A   Overcast
10:35 PM 26.6 °F 10.0 °F 21.2 °F 80% 29.64 in 10.0 mi WNW 31.1 mph 39.1 mph N/A   Overcast
10:55 PM 26.6 °F 11.1 °F 19.4 °F 74% 29.64 in 10.0 mi WNW 26.5 mph 39.1 mph N/A   Overcast
11:15 PM 26.6 °F 10.3 °F 19.4 °F 74% 29.64 in 10.0 mi WNW 29.9 mph 39.1 mph N/A   Overcast
11:35 PM 26.6 °F 10.8 °F 19.4 °F 74% 29.65 in 10.0 mi WNW 27.6 mph 39.1 mph N/A   Overcast
11:55 PM 26.6 °F 10.8 °F 19.4 °F 74% 29.65 in 10.0 mi WNW 27.6 mph 34.5 mph N/A   Overcast